createdAt,value
2023-04-10T00:02:27.349Z,8.40
2023-04-10T00:05:30.306Z,9.32
2023-04-10T00:08:35.540Z,8.73
2023-04-10T00:11:38.323Z,8.93
2023-04-10T00:14:41.003Z,8.82
2023-04-10T00:17:43.770Z,9.05
2023-04-10T00:20:46.149Z,9.30
2023-04-10T00:23:48.751Z,8.10
2023-04-10T00:26:53.332Z,9.00
2023-04-10T00:29:55.985Z,8.35
2023-04-10T00:32:58.963Z,8.77
2023-04-10T00:36:01.799Z,9.57
2023-04-10T00:39:04.407Z,7.93
2023-04-10T00:42:09.508Z,8.03
2023-04-10T00:45:11.971Z,8.68
2023-04-10T00:48:15.440Z,9.32
2023-04-10T00:51:20.871Z,8.55
2023-04-10T00:54:23.920Z,9.30
2023-04-10T00:57:28.546Z,8.33
2023-04-10T01:00:31.240Z,9.90
2023-04-10T01:03:33.984Z,9.38
2023-04-10T01:07:20.372Z,9.18
2023-04-10T01:10:47.949Z,9.33
2023-04-10T01:14:06.423Z,9.33
2023-04-10T01:17:35.570Z,10.20
2023-04-10T01:20:40.239Z,8.30
2023-04-10T01:24:07.388Z,10.05
2023-04-10T01:28:02.439Z,8.90
2023-04-10T01:31:08.860Z,9.83
2023-04-10T01:34:20.568Z,9.38
2023-04-10T01:37:30.364Z,10.05
2023-04-10T01:40:33.851Z,9.18
2023-04-10T01:43:38.446Z,9.50
2023-04-10T01:46:43.905Z,9.90
2023-04-10T01:49:48.843Z,9.23
2023-04-10T01:52:53.007Z,9.68
2023-04-10T01:55:55.787Z,9.18
2023-04-10T01:58:59.215Z,8.90
2023-04-10T02:02:02.187Z,9.33
2023-04-10T02:05:05.430Z,10.13
2023-04-10T02:08:42.559Z,9.63
2023-04-10T02:11:57.316Z,10.25
2023-04-10T02:15:02.532Z,8.97
2023-04-10T02:18:10.112Z,8.97
2023-04-10T02:21:13.307Z,9.85
2023-04-10T02:24:17.047Z,9.20
2023-04-10T02:27:35.186Z,8.68
2023-04-10T02:30:39.237Z,8.70
2023-04-10T02:33:42.118Z,9.97
2023-04-10T02:36:44.529Z,8.68
2023-04-10T02:39:47.633Z,8.98
2023-04-10T02:42:50.411Z,8.93
2023-04-10T02:45:53.026Z,9.23
2023-04-10T02:48:56.285Z,9.13
2023-04-10T02:51:59.029Z,8.85
2023-04-10T02:55:01.471Z,8.82
2023-04-10T02:58:05.579Z,9.00
2023-04-10T03:01:08.105Z,8.70
2023-04-10T03:04:11.978Z,8.60
2023-04-10T03:07:14.844Z,8.77
2023-04-10T03:10:17.520Z,8.52
2023-04-10T03:13:19.906Z,9.00
2023-04-10T03:16:22.583Z,8.83
2023-04-10T03:19:26.797Z,8.47
2023-04-10T03:22:33.210Z,8.80
2023-04-10T03:25:36.595Z,8.95
2023-04-10T03:28:41.482Z,9.43
2023-04-10T03:31:45.021Z,9.13
2023-04-10T03:34:47.842Z,9.30
2023-04-10T03:37:50.339Z,9.30
2023-04-10T03:40:54.020Z,10.23
2023-04-10T03:43:57.062Z,10.05
2023-04-10T03:47:08.623Z,9.60
2023-04-10T03:50:11.286Z,10.73
2023-04-10T03:53:15.566Z,11.10
2023-04-10T03:56:18.239Z,10.70
2023-04-10T03:59:24.248Z,10.68
2023-04-10T04:02:31.785Z,11.50
2023-04-10T04:05:34.597Z,11.10
2023-04-10T04:08:38.774Z,11.32
2023-04-10T04:11:42.726Z,11.00
2023-04-10T04:14:46.553Z,12.63
2023-04-10T04:17:51.444Z,10.97
2023-04-10T04:20:58.127Z,10.53
2023-04-10T04:24:06.546Z,11.57
2023-04-10T04:27:09.653Z,11.02
2023-04-10T04:30:13.109Z,11.45
2023-04-10T04:33:18.113Z,10.57
2023-04-10T04:36:22.689Z,11.67
2023-04-10T04:39:28.025Z,13.00
2023-04-10T04:42:31.038Z,12.48
2023-04-10T04:45:35.584Z,11.85
2023-04-10T04:48:40.682Z,12.00
2023-04-10T04:51:43.522Z,11.90
2023-04-10T04:54:46.384Z,11.52
2023-04-10T04:57:49.339Z,11.52
2023-04-10T05:00:53.159Z,12.68
2023-04-10T05:03:55.957Z,12.20
2023-04-10T05:07:01.374Z,11.67
2023-04-10T05:10:04.455Z,11.93
2023-04-10T05:13:10.506Z,11.23
2023-04-10T05:16:14.155Z,11.93
2023-04-10T05:19:17.169Z,11.90
2023-04-10T05:22:24.210Z,12.43
2023-04-10T05:25:26.939Z,12.32
2023-04-10T05:28:31.911Z,11.95
2023-04-10T05:31:34.920Z,11.82
2023-04-10T05:34:37.712Z,11.77
2023-04-10T05:37:42.184Z,12.68
2023-04-10T05:40:48.041Z,12.63
2023-04-10T05:43:54.296Z,12.60
2023-04-10T05:46:56.852Z,12.32
2023-04-10T05:49:59.673Z,12.77
2023-04-10T05:53:02.319Z,12.30
2023-04-10T05:56:09.145Z,12.77
2023-04-10T05:59:13.383Z,12.73
2023-04-10T06:02:17.116Z,12.02
2023-04-10T06:05:20.825Z,12.70
2023-04-10T06:08:23.611Z,11.15
2023-04-10T06:11:26.270Z,11.43
2023-04-10T06:14:28.749Z,11.73
2023-04-10T06:17:32.200Z,11.65
2023-04-10T06:20:34.772Z,11.23
2023-04-10T06:23:37.466Z,11.40
2023-04-10T06:26:39.964Z,11.25
2023-04-10T06:29:42.614Z,10.52
2023-04-10T06:32:45.114Z,11.55
2023-04-10T06:35:48.861Z,10.83
2023-04-10T06:38:51.692Z,11.07
2023-04-10T06:41:54.560Z,10.93
2023-04-10T06:44:58.895Z,11.68
2023-04-10T06:48:01.684Z,10.50
2023-04-10T06:51:04.585Z,11.63
2023-04-10T06:54:07.290Z,10.98
2023-04-10T06:57:09.707Z,11.18
2023-04-10T07:00:12.803Z,11.65
2023-04-10T07:03:15.653Z,11.55
2023-04-10T07:06:18.484Z,11.37
2023-04-10T07:09:21.066Z,10.93
2023-04-10T07:12:24.176Z,11.40
2023-04-10T07:15:26.539Z,9.95
2023-04-10T07:18:29.227Z,11.25
2023-04-10T07:21:33.065Z,9.83
2023-04-10T07:24:35.828Z,10.18
2023-04-10T07:27:38.209Z,9.82
2023-04-10T07:30:40.918Z,10.15
2023-04-10T07:33:43.325Z,9.93
2023-04-10T07:36:47.294Z,9.57
2023-04-10T07:39:49.656Z,9.85
2023-04-10T07:42:54.300Z,10.20
2023-04-10T07:45:57.141Z,9.73
2023-04-10T07:49:02.136Z,9.93
2023-04-10T07:52:06.098Z,10.20
2023-04-10T07:55:09.461Z,10.38
2023-04-10T07:58:11.873Z,9.63
2023-04-10T08:01:15.889Z,10.18
2023-04-10T08:04:18.871Z,10.52
2023-04-10T08:07:22.563Z,9.20
2023-04-10T08:10:25.370Z,9.82
2023-04-10T08:13:28.222Z,9.43
2023-04-10T08:16:32.751Z,8.93
2023-04-10T08:19:36.285Z,9.52
2023-04-10T08:22:39.129Z,9.87
2023-04-10T08:25:44.633Z,10.02
2023-04-10T08:28:50.694Z,9.65
2023-04-10T08:31:54.576Z,10.20
2023-04-10T08:34:57.495Z,10.50
2023-04-10T08:38:12.651Z,10.37
2023-04-10T08:41:20.008Z,10.32
2023-04-10T08:44:22.446Z,10.57
2023-04-10T08:47:28.330Z,10.05
2023-04-10T08:50:36.191Z,10.07
2023-04-10T08:53:43.626Z,10.40
2023-04-10T08:56:51.254Z,10.90
2023-04-10T08:59:56.205Z,11.32
2023-04-10T09:03:00.268Z,11.48
2023-04-10T09:06:05.043Z,11.35
2023-04-10T09:09:07.479Z,10.97
2023-04-10T09:12:10.892Z,10.73
2023-04-10T09:15:14.055Z,12.10
2023-04-10T09:18:16.694Z,10.68
2023-04-10T09:21:20.971Z,10.27
2023-04-10T09:24:24.305Z,10.03
2023-04-10T09:27:39.390Z,9.40
2023-04-10T09:30:43.430Z,7.70
2023-04-10T09:33:46.426Z,7.85
2023-04-10T09:37:00.078Z,8.30
2023-04-10T09:40:03.566Z,8.27
2023-04-10T09:43:18.860Z,8.85
2023-04-10T09:46:28.926Z,7.00
2023-04-10T09:49:46.362Z,8.00
2023-04-10T09:52:58.040Z,8.57
2023-04-10T09:56:05.325Z,8.47
2023-04-10T09:59:08.377Z,8.55
2023-04-10T10:02:13.363Z,9.85
2023-04-10T10:05:16.586Z,9.38
2023-04-10T10:08:19.185Z,8.88
2023-04-10T10:11:24.826Z,9.23
2023-04-10T10:14:29.203Z,9.63
2023-04-10T10:17:51.591Z,9.35
2023-04-10T10:20:54.365Z,9.13
2023-04-10T10:24:02.006Z,9.40
2023-04-10T10:27:09.356Z,8.87
2023-04-10T10:30:28.296Z,8.88
2023-04-10T10:33:35.778Z,9.40
2023-04-10T10:36:39.999Z,8.98
2023-04-10T10:40:18.009Z,9.55
2023-04-10T10:43:26.638Z,9.97
2023-04-10T10:46:44.637Z,10.07
2023-04-10T10:49:57.437Z,11.18
2023-04-10T10:53:01.403Z,10.88
2023-04-10T10:56:27.106Z,11.05
2023-04-10T10:59:47.929Z,11.43
2023-04-10T11:03:08.756Z,11.65
2023-04-10T11:06:19.332Z,13.98
2023-04-10T11:09:51.054Z,12.95
2023-04-10T11:13:24.829Z,13.25
2023-04-10T11:16:31.669Z,12.33
2023-04-10T11:19:59.949Z,12.55
2023-04-10T11:23:13.228Z,13.00
2023-04-10T11:26:39.562Z,12.98
2023-04-10T11:29:42.290Z,13.05
2023-04-10T11:32:45.486Z,13.00
2023-04-10T11:35:48.397Z,13.60
2023-04-10T11:39:02.649Z,13.73
2023-04-10T11:42:05.917Z,14.15
2023-04-10T11:45:28.197Z,14.07
2023-04-10T11:48:31.646Z,13.97
2023-04-10T11:51:34.221Z,14.02
2023-04-10T11:54:37.809Z,13.65
2023-04-10T11:57:40.309Z,14.20
2023-04-10T12:00:42.995Z,14.00
2023-04-10T12:03:46.159Z,13.37
2023-04-10T12:06:57.267Z,14.77
2023-04-10T12:09:59.967Z,14.40
2023-04-10T12:13:02.384Z,13.13
2023-04-10T12:16:08.794Z,12.85
2023-04-10T12:19:12.060Z,12.43
2023-04-10T12:22:14.908Z,13.00
2023-04-10T12:25:21.541Z,13.27
2023-04-10T12:28:24.255Z,12.80
2023-04-10T12:31:36.471Z,12.40
2023-04-10T12:34:39.759Z,12.90
2023-04-10T12:37:48.094Z,12.37
2023-04-10T12:41:11.360Z,11.98
2023-04-10T12:44:14.589Z,11.90
2023-04-10T12:47:17.291Z,13.00
2023-04-10T12:50:23.552Z,13.33
2023-04-10T12:53:27.391Z,11.80
2023-04-10T12:56:40.973Z,12.48
2023-04-10T12:59:44.881Z,12.25
2023-04-10T13:02:48.869Z,12.45
2023-04-10T13:05:52.471Z,12.53
2023-04-10T13:08:56.199Z,12.05
2023-04-10T13:11:59.232Z,12.48
2023-04-10T13:15:02.864Z,12.18
2023-04-10T13:18:08.698Z,13.32
2023-04-10T13:21:11.256Z,11.90
2023-04-10T13:24:16.452Z,11.25
2023-04-10T13:27:19.192Z,12.00
2023-04-10T13:30:21.893Z,12.02
2023-04-10T13:33:25.053Z,12.63
2023-04-10T13:36:27.905Z,12.20
2023-04-10T13:39:31.468Z,12.18
2023-04-10T13:42:35.908Z,12.60
2023-04-10T13:45:41.444Z,11.98
2023-04-10T13:48:44.083Z,12.90
2023-04-10T13:51:46.899Z,14.40
2023-04-10T13:54:49.545Z,12.60
2023-04-10T13:57:52.204Z,13.40
2023-04-10T14:00:54.996Z,13.35
2023-04-10T14:03:57.891Z,13.55
2023-04-10T14:07:02.162Z,13.60
2023-04-10T14:10:07.079Z,13.80
2023-04-10T14:13:11.520Z,14.20
2023-04-10T14:16:14.732Z,12.90
2023-04-10T14:19:21.649Z,13.60
2023-04-10T14:25:27.035Z,12.68
2023-04-10T14:28:29.815Z,13.00
2023-04-10T14:31:32.222Z,13.10
2023-04-10T14:34:35.008Z,12.73
2023-04-10T14:37:37.856Z,12.00
2023-04-10T14:40:43.704Z,13.25
2023-04-10T14:43:45.974Z,13.25
2023-04-10T14:46:48.587Z,12.50
2023-04-10T14:49:51.012Z,14.57
2023-04-10T14:52:53.859Z,14.83
2023-04-10T14:55:56.247Z,14.07
2023-04-10T14:58:59.010Z,14.57
2023-04-10T15:02:01.431Z,12.80
2023-04-10T15:05:04.771Z,13.68
2023-04-10T15:08:07.131Z,13.47
2023-04-10T15:11:09.976Z,12.48
2023-04-10T15:14:12.455Z,13.88
2023-04-10T15:17:15.462Z,14.13
2023-04-10T15:20:18.051Z,13.98
2023-04-10T15:23:20.762Z,14.10
2023-04-10T15:26:23.225Z,14.57
2023-04-10T15:29:25.869Z,13.77
2023-04-10T15:32:31.220Z,15.02
2023-04-10T15:35:36.865Z,14.55
2023-04-10T15:38:39.512Z,13.97
2023-04-10T15:41:42.256Z,13.52
2023-04-10T15:44:48.944Z,15.32
2023-04-10T15:47:52.064Z,14.02
2023-04-10T15:50:54.993Z,14.82
2023-04-10T15:53:57.795Z,14.60
2023-04-10T15:57:00.162Z,15.50
2023-04-10T16:00:06.131Z,15.40
2023-04-10T16:03:09.233Z,15.13
2023-04-10T16:06:11.799Z,14.40
2023-04-10T16:09:24.801Z,14.63
2023-04-10T16:12:28.736Z,14.85
2023-04-10T16:15:34.462Z,15.82
2023-04-10T16:18:37.026Z,15.45
2023-04-10T16:21:40.083Z,16.15
2023-04-10T16:24:42.517Z,15.63
2023-04-10T16:27:45.177Z,15.73
2023-04-10T16:30:47.512Z,16.95
2023-04-10T16:33:50.226Z,15.85
2023-04-10T16:36:52.666Z,15.80
2023-04-10T16:39:56.160Z,15.83
2023-04-10T16:43:01.048Z,15.70
2023-04-10T16:46:03.867Z,16.27
2023-04-10T16:49:06.220Z,16.55
2023-04-10T16:52:08.848Z,16.10
2023-04-10T16:55:11.454Z,15.33
2023-04-10T16:58:14.187Z,15.18
2023-04-10T17:01:19.406Z,15.35
2023-04-10T17:04:22.410Z,15.93
2023-04-10T17:07:24.956Z,16.95
2023-04-10T17:10:28.027Z,16.20
2023-04-10T17:13:30.619Z,23.67
2023-04-10T17:16:33.763Z,20.85
2023-04-10T17:19:36.163Z,22.55
2023-04-10T17:22:41.281Z,22.95
2023-04-10T17:25:44.911Z,22.73
2023-04-10T17:28:47.981Z,20.33
2023-04-10T17:31:50.430Z,20.45
2023-04-10T17:34:53.204Z,28.62
2023-04-10T17:37:55.718Z,37.20
2023-04-10T17:40:58.335Z,30.50
2023-04-10T17:44:02.539Z,33.08
2023-04-10T17:47:05.465Z,35.25
2023-04-10T17:50:08.574Z,30.88
2023-04-10T17:53:11.295Z,26.92
2023-04-10T17:56:19.624Z,23.73
2023-04-10T17:59:22.311Z,20.20
2023-04-10T18:02:24.938Z,17.20
2023-04-10T18:05:31.025Z,16.45
2023-04-10T18:08:35.315Z,16.87
2023-04-10T18:11:39.930Z,15.03
2023-04-10T18:14:44.010Z,15.73
2023-04-10T18:17:46.687Z,16.20
2023-04-10T18:20:49.081Z,17.50
2023-04-10T18:23:51.787Z,16.85
2023-04-10T18:26:56.596Z,15.70
2023-04-10T18:29:59.313Z,16.08
2023-04-10T18:33:05.341Z,16.10
2023-04-10T18:36:13.931Z,16.40
2023-04-10T18:39:18.188Z,17.23
2023-04-10T18:42:20.852Z,16.40
2023-04-10T18:45:23.423Z,16.70
2023-04-10T18:48:26.060Z,17.30
2023-04-10T18:51:28.718Z,17.00
2023-04-10T18:54:31.676Z,17.90
2023-04-10T18:57:34.075Z,16.77
2023-04-10T19:00:38.857Z,17.45
2023-04-10T19:03:41.324Z,16.92
2023-04-10T19:06:46.267Z,17.27
2023-04-10T19:09:48.590Z,18.52
2023-04-10T19:12:53.260Z,17.43
2023-04-10T19:15:55.763Z,18.10
2023-04-10T19:18:58.582Z,17.92
2023-04-10T19:22:01.208Z,17.17
2023-04-10T19:25:04.013Z,18.95
2023-04-10T19:28:07.041Z,18.60
2023-04-10T19:31:09.781Z,18.37
2023-04-10T19:34:12.570Z,18.20
2023-04-10T19:37:15.219Z,18.23
2023-04-10T19:40:19.340Z,18.50
2023-04-10T19:43:22.060Z,17.90
2023-04-10T19:46:24.676Z,18.00
2023-04-10T19:49:29.151Z,18.73
2023-04-10T19:52:31.783Z,17.23
2023-04-10T19:55:34.510Z,17.23
2023-04-10T19:58:41.047Z,18.27
2023-04-10T20:01:45.738Z,18.30
2023-04-10T20:04:48.973Z,18.35
2023-04-10T20:07:51.544Z,18.25
2023-04-10T20:10:56.084Z,18.70
2023-04-10T20:14:00.268Z,17.57
2023-04-10T20:17:02.958Z,17.87
2023-04-10T20:20:06.023Z,18.70
2023-04-10T20:23:09.080Z,16.23
2023-04-10T20:26:15.531Z,18.87
2023-04-10T20:29:21.851Z,17.63
2023-04-10T20:32:27.089Z,17.87
2023-04-10T20:35:29.769Z,17.75
2023-04-10T20:38:32.192Z,16.25
2023-04-10T20:41:34.874Z,17.10
2023-04-10T20:44:37.912Z,16.83
2023-04-10T20:47:40.791Z,17.33
2023-04-10T20:50:46.763Z,18.87
2023-04-10T20:53:49.454Z,17.67
2023-04-10T20:56:53.158Z,18.35
2023-04-10T20:59:57.419Z,19.07
2023-04-10T21:03:00.089Z,17.85
2023-04-10T21:06:04.321Z,17.98
2023-04-10T21:09:06.752Z,17.75
2023-04-10T21:12:09.443Z,17.33
2023-04-10T21:15:17.004Z,16.77
2023-04-10T21:18:20.252Z,18.08
2023-04-10T21:21:22.800Z,18.40
2023-04-10T21:24:25.986Z,17.85
2023-04-10T21:27:30.225Z,17.50
2023-04-10T21:30:32.914Z,17.53
2023-04-10T21:33:35.497Z,17.98
2023-04-10T21:36:38.859Z,18.85
2023-04-10T21:39:41.705Z,17.90
2023-04-10T21:42:44.346Z,17.60
2023-04-10T21:45:46.867Z,16.83
2023-04-10T21:48:49.527Z,17.20
2023-04-10T21:51:51.903Z,17.48
2023-04-10T21:54:54.624Z,17.60
2023-04-10T21:57:57.449Z,16.05
2023-04-10T22:01:02.115Z,16.83
2023-04-10T22:04:08.078Z,16.73
2023-04-10T22:07:10.521Z,16.35
2023-04-10T22:10:14.657Z,16.48
2023-04-10T22:13:29.788Z,17.83
2023-04-10T22:16:33.320Z,16.60
2023-04-10T22:19:35.750Z,16.40
2023-04-10T22:22:38.430Z,16.10
2023-04-10T22:25:40.846Z,15.38
2023-04-10T22:28:43.557Z,14.48
2023-04-10T22:31:46.448Z,13.93
2023-04-10T22:34:49.102Z,13.02
2023-04-10T22:37:51.568Z,13.93
2023-04-10T22:40:55.148Z,13.07
2023-04-10T22:43:57.713Z,12.98
2023-04-10T22:47:00.418Z,12.30
2023-04-10T22:50:03.971Z,12.45
2023-04-10T22:53:06.765Z,11.95
2023-04-10T22:56:10.543Z,11.68
2023-04-10T22:59:13.186Z,11.68
2023-04-10T23:02:15.735Z,11.17
2023-04-10T23:05:18.416Z,11.30
2023-04-10T23:08:23.139Z,11.63
2023-04-10T23:11:25.796Z,10.20
2023-04-10T23:14:28.283Z,10.05
2023-04-10T23:17:31.016Z,9.77
2023-04-10T23:20:33.430Z,8.73
2023-04-10T23:23:36.081Z,9.35
2023-04-10T23:26:38.422Z,8.63
2023-04-10T23:29:41.033Z,8.85
2023-04-10T23:32:43.357Z,8.50
2023-04-10T23:35:46.170Z,8.02
2023-04-10T23:38:48.659Z,8.50
2023-04-10T23:41:53.575Z,7.72
2023-04-10T23:44:56.120Z,7.82
2023-04-10T23:47:58.884Z,7.53
2023-04-10T23:51:05.964Z,7.87
2023-04-10T23:54:08.601Z,7.32
2023-04-10T23:57:11.037Z,7.28
